createdAt,value
2022-11-29T00:00:09.087Z,94819.38
2022-11-29T00:02:10.889Z,94810.78
2022-11-29T00:04:12.698Z,94817.25
2022-11-29T00:06:16.496Z,94820.56
2022-11-29T00:08:19.219Z,94814.81
2022-11-29T00:10:20.820Z,94812.16
2022-11-29T00:12:22.522Z,94816.44
2022-11-29T00:14:25.669Z,94815.72
2022-11-29T00:16:27.359Z,94817.13
2022-11-29T00:18:28.971Z,94814.09
2022-11-29T00:20:31.267Z,94820.19
2022-11-29T00:22:32.865Z,94823.50
2022-11-29T00:24:34.703Z,94822.09
2022-11-29T00:26:37.308Z,94822.78
2022-11-29T00:28:38.879Z,94829.19
2022-11-29T00:30:40.611Z,94824.09
2022-11-29T00:32:42.228Z,94823.59
2022-11-29T00:34:44.328Z,94818.78
2022-11-29T00:36:46.135Z,94819.38
2022-11-29T00:38:47.788Z,94816.63
2022-11-29T00:40:52.748Z,94824.13
2022-11-29T00:42:54.402Z,94818.22
2022-11-29T00:44:56.047Z,94825.00
2022-11-29T00:46:57.679Z,94825.72
2022-11-29T00:48:59.266Z,94830.81
2022-11-29T00:51:01.221Z,94826.09
2022-11-29T00:53:02.880Z,94834.28
2022-11-29T00:55:04.816Z,94831.44
2022-11-29T00:57:06.376Z,94830.03
2022-11-29T00:59:08.018Z,94823.94
2022-11-29T01:01:10.662Z,94826.03
2022-11-29T01:03:12.300Z,94827.22
2022-11-29T01:05:13.988Z,94827.22
2022-11-29T01:07:15.661Z,94820.25
2022-11-29T01:09:17.734Z,94823.06
2022-11-29T01:11:24.817Z,94822.22
2022-11-29T01:13:26.402Z,94815.38
2022-11-29T01:15:28.550Z,94812.47
2022-11-29T01:17:30.211Z,94818.84
2022-11-29T01:19:31.838Z,94814.81
2022-11-29T01:21:33.929Z,94812.31
2022-11-29T01:23:36.483Z,94811.97
2022-11-29T01:25:38.151Z,94812.19
2022-11-29T01:27:39.961Z,94800.44
2022-11-29T01:29:41.729Z,94807.13
2022-11-29T01:31:43.383Z,94803.13
2022-11-29T01:33:45.048Z,94797.00
2022-11-29T01:35:54.936Z,94803.81
2022-11-29T01:37:56.628Z,94799.13
2022-11-29T01:39:58.258Z,94793.84
2022-11-29T01:42:00.802Z,94796.06
2022-11-29T01:44:11.697Z,94793.22
2022-11-29T01:46:13.337Z,94798.28
2022-11-29T01:48:15.061Z,94792.41
2022-11-29T01:50:17.127Z,94798.00
2022-11-29T01:52:25.161Z,94791.28
2022-11-29T01:54:27.362Z,94784.84
2022-11-29T01:56:30.458Z,94791.28
2022-11-29T01:58:32.696Z,94784.94
2022-11-29T02:00:34.348Z,94782.19
2022-11-29T02:02:58.540Z,94781.97
2022-11-29T02:05:01.411Z,94775.03
2022-11-29T02:07:03.699Z,94781.47
2022-11-29T02:09:05.846Z,94781.06
2022-11-29T02:11:10.606Z,94777.25
2022-11-29T02:13:26.146Z,94779.25
2022-11-29T02:15:43.725Z,94776.00
2022-11-29T02:18:05.983Z,94782.81
2022-11-29T02:20:16.689Z,94780.69
2022-11-29T02:22:29.676Z,94780.91
2022-11-29T02:24:40.251Z,94785.09
2022-11-29T02:27:06.264Z,94779.72
2022-11-29T02:30:01.926Z,94772.09
2022-11-29T02:32:18.133Z,94779.91
2022-11-29T02:34:51.686Z,94780.06
2022-11-29T02:37:11.397Z,94780.53
2022-11-29T02:39:16.640Z,94781.72
2022-11-29T02:41:55.237Z,94783.53
2022-11-29T02:44:42.678Z,94781.72
2022-11-29T02:47:08.736Z,94787.06
2022-11-29T02:49:50.349Z,94779.94
2022-11-29T02:52:03.762Z,94780.09
2022-11-29T02:54:32.283Z,94778.84
2022-11-29T02:56:56.698Z,94786.66
2022-11-29T02:59:14.394Z,94785.22
2022-11-29T03:01:18.727Z,94783.38
2022-11-29T03:03:28.140Z,94779.41
2022-11-29T03:05:39.014Z,94783.16
2022-11-29T03:07:46.845Z,94781.06
2022-11-29T03:10:09.571Z,94782.88
2022-11-29T03:12:17.690Z,94787.94
2022-11-29T03:14:26.118Z,94799.44
2022-11-29T03:16:45.883Z,94793.47
2022-11-29T03:19:23.934Z,94790.00
2022-11-29T03:21:31.283Z,94797.56
2022-11-29T03:23:51.460Z,94791.41
2022-11-29T03:25:56.120Z,94794.22
2022-11-29T03:28:13.921Z,94791.16
2022-11-29T03:30:18.683Z,94797.53
2022-11-29T03:32:54.260Z,94795.75
2022-11-29T03:35:10.526Z,94796.16
2022-11-29T03:37:20.604Z,94802.53
2022-11-29T03:39:49.976Z,94793.88
2022-11-29T03:42:00.686Z,94800.25
2022-11-29T03:44:11.563Z,94800.41
2022-11-29T03:46:21.843Z,94800.41
2022-11-29T03:48:31.587Z,94800.69
2022-11-29T03:50:40.110Z,94798.94
2022-11-29T03:52:52.599Z,94793.91
2022-11-29T03:55:01.884Z,94799.81
2022-11-29T03:57:03.881Z,94790.97
2022-11-29T03:59:29.599Z,94797.13
2022-11-29T04:02:01.203Z,94798.66
2022-11-29T04:04:05.657Z,94797.97
2022-11-29T04:06:21.856Z,94792.16
2022-11-29T04:09:01.135Z,94794.75
2022-11-29T04:11:21.162Z,94797.00
2022-11-29T04:13:37.626Z,94798.91
2022-11-29T04:15:57.331Z,94803.56
2022-11-29T04:18:44.288Z,94800.88
2022-11-29T04:21:01.673Z,94803.50
2022-11-29T04:23:30.704Z,94810.97
2022-11-29T04:25:55.733Z,94804.13
2022-11-29T04:28:09.479Z,94808.75
2022-11-29T04:30:24.386Z,94816.44
2022-11-29T04:32:31.974Z,94816.44
2022-11-29T04:34:57.492Z,94807.63
2022-11-29T04:37:29.626Z,94800.91
2022-11-29T04:39:46.304Z,94806.19
2022-11-29T04:42:20.188Z,94805.63
2022-11-29T04:44:31.895Z,94798.31
2022-11-29T04:46:39.748Z,94811.03
2022-11-29T04:49:00.404Z,94803.94
2022-11-29T04:51:39.751Z,94802.78
2022-11-29T04:54:07.892Z,94804.91
2022-11-29T04:56:33.361Z,94798.63
2022-11-29T04:58:42.351Z,94796.88
2022-11-29T05:01:07.163Z,94796.88
2022-11-29T05:03:17.508Z,94789.94
2022-11-29T05:05:42.421Z,94796.16
2022-11-29T05:07:53.182Z,94797.13
2022-11-29T05:10:07.086Z,94795.22
2022-11-29T05:12:28.288Z,94795.22
2022-11-29T05:14:39.172Z,94799.97
2022-11-29T05:16:55.992Z,94805.00
2022-11-29T05:19:04.459Z,94801.78
2022-11-29T05:21:43.032Z,94801.38
2022-11-29T05:23:50.559Z,94803.09
2022-11-29T05:26:01.237Z,94806.31
2022-11-29T05:28:33.717Z,94794.28
2022-11-29T05:30:47.496Z,94799.91
2022-11-29T05:33:11.648Z,94802.75
2022-11-29T05:35:46.752Z,94799.19
2022-11-29T05:37:48.221Z,94798.63
2022-11-29T05:40:04.220Z,94803.25
2022-11-29T05:42:25.122Z,94805.69
2022-11-29T05:44:38.151Z,94817.75
2022-11-29T05:46:54.788Z,94805.31
2022-11-29T05:49:05.424Z,94810.97
2022-11-29T05:51:36.431Z,94803.38
2022-11-29T05:54:10.312Z,94801.41
2022-11-29T05:56:41.016Z,94799.09
2022-11-29T05:58:59.684Z,94795.91
2022-11-29T06:01:14.678Z,94803.56
2022-11-29T06:03:25.123Z,94798.28
2022-11-29T06:05:32.445Z,94808.50
2022-11-29T06:07:51.778Z,94804.97
2022-11-29T06:10:01.890Z,94812.25
2022-11-29T06:12:16.907Z,94813.13
2022-11-29T06:14:51.505Z,94810.03
2022-11-29T06:17:16.343Z,94800.13
2022-11-29T06:19:23.775Z,94804.56
2022-11-29T06:21:40.792Z,94806.00
2022-11-29T06:23:48.631Z,94806.00
2022-11-29T06:25:53.416Z,94811.75
2022-11-29T06:28:06.834Z,94805.34
2022-11-29T06:30:10.181Z,94807.94
2022-11-29T06:32:25.343Z,94797.72
2022-11-29T06:34:36.056Z,94799.63
2022-11-29T06:36:49.581Z,94805.00
2022-11-29T06:38:51.482Z,94808.19
2022-11-29T06:41:00.101Z,94805.06
2022-11-29T06:43:04.014Z,94810.16
2022-11-29T06:45:06.651Z,94806.94
2022-11-29T06:47:44.649Z,94810.94
2022-11-29T06:49:58.964Z,94819.72
2022-11-29T06:52:00.378Z,94813.88
2022-11-29T06:54:18.791Z,94813.44
2022-11-29T06:56:32.343Z,94821.13
2022-11-29T06:59:00.523Z,94818.53
2022-11-29T07:01:29.784Z,94819.59
2022-11-29T07:03:46.629Z,94821.72
2022-11-29T07:05:48.627Z,94827.06
2022-11-29T07:07:53.393Z,94817.66
2022-11-29T07:09:59.666Z,94820.47
2022-11-29T07:12:01.687Z,94822.97
2022-11-29T07:14:03.727Z,94828.66
2022-11-29T07:16:16.262Z,94825.63
2022-11-29T07:18:24.680Z,94828.88
2022-11-29T07:21:07.257Z,94832.31
2022-11-29T07:23:36.390Z,94831.03
2022-11-29T07:25:49.073Z,94834.22
2022-11-29T07:28:05.570Z,94835.94
2022-11-29T07:30:13.949Z,94834.41
2022-11-29T07:32:34.333Z,94831.47
2022-11-29T07:34:49.960Z,94827.97
2022-11-29T07:37:06.205Z,94831.28
2022-11-29T07:39:29.469Z,94828.94
2022-11-29T07:41:55.796Z,94819.63
2022-11-29T07:44:04.074Z,94814.09
2022-11-29T07:46:05.819Z,94823.28
2022-11-29T07:48:07.721Z,94819.41
2022-11-29T07:50:09.738Z,94821.28
2022-11-29T07:52:15.702Z,94821.63
2022-11-29T07:54:19.142Z,94823.06
2022-11-29T07:56:20.799Z,94818.47
2022-11-29T07:58:22.468Z,94817.50
2022-11-29T08:00:24.451Z,94817.81
2022-11-29T08:02:30.951Z,94819.88
2022-11-29T08:04:32.761Z,94815.50
2022-11-29T08:06:34.821Z,94823.94
2022-11-29T08:08:42.236Z,94826.53
2022-11-29T08:10:45.522Z,94819.91
2022-11-29T08:12:50.301Z,94823.22
2022-11-29T08:14:52.055Z,94830.78
2022-11-29T08:16:53.610Z,94827.84
2022-11-29T08:18:55.568Z,94831.50
2022-11-29T08:20:57.120Z,94828.91
2022-11-29T08:22:59.683Z,94821.38
2022-11-29T08:25:01.583Z,94833.19
2022-11-29T08:27:03.249Z,94827.72
2022-11-29T08:29:04.900Z,94832.06
2022-11-29T08:31:08.946Z,94825.38
2022-11-29T08:33:10.637Z,94834.47
2022-11-29T08:35:12.374Z,94841.44
2022-11-29T08:37:14.269Z,94828.72
2022-11-29T08:39:15.972Z,94831.31
2022-11-29T08:41:17.787Z,94835.41
2022-11-29T08:43:19.459Z,94841.06
2022-11-29T08:45:21.117Z,94832.41
2022-11-29T08:47:37.891Z,94838.81
2022-11-29T08:49:59.572Z,94836.44
2022-11-29T08:52:19.741Z,94839.78
2022-11-29T08:54:21.355Z,94838.59
2022-11-29T08:57:10.080Z,94836.50
2022-11-29T08:58:45.716Z,94833.91
2022-11-29T09:00:47.555Z,94842.72
2022-11-29T09:02:49.361Z,94843.94
2022-11-29T09:04:50.980Z,94842.25
2022-11-29T09:06:52.701Z,94838.16
2022-11-29T09:08:56.609Z,94840.53
2022-11-29T09:10:58.113Z,94825.88
2022-11-29T09:12:59.665Z,94832.94
2022-11-29T09:15:01.415Z,94831.88
2022-11-29T09:17:03.054Z,94824.22
2022-11-29T09:19:05.553Z,94829.44
2022-11-29T09:21:12.369Z,94826.13
2022-11-29T09:23:14.069Z,94832.84
2022-11-29T09:25:15.722Z,94821.03
2022-11-29T09:27:17.746Z,94815.63
2022-11-29T09:29:19.476Z,94813.00
2022-11-29T09:31:21.590Z,94818.91
2022-11-29T09:33:23.284Z,94813.38
2022-11-29T09:35:25.239Z,94811.47
2022-11-29T09:37:26.964Z,94805.22
2022-11-29T09:39:28.723Z,94805.78
2022-11-29T09:41:46.988Z,94800.78
2022-11-29T09:44:27.379Z,94800.25
2022-11-29T09:46:46.884Z,94795.53
2022-11-29T09:49:23.797Z,94794.13
2022-11-29T09:51:50.086Z,94785.03
2022-11-29T09:54:11.924Z,94785.94
2022-11-29T09:56:29.307Z,94786.81
2022-11-29T09:58:37.185Z,94789.50
2022-11-29T10:00:46.783Z,94789.19
2022-11-29T10:02:53.495Z,94782.09
2022-11-29T10:05:00.675Z,94780.84
2022-11-29T10:07:19.676Z,94776.16
2022-11-29T10:09:38.754Z,94770.47
2022-11-29T10:11:57.019Z,94778.00
2022-11-29T10:14:21.567Z,94766.63
2022-11-29T10:16:36.816Z,94771.13
2022-11-29T10:18:45.420Z,94762.84
2022-11-29T10:20:49.451Z,94768.50
2022-11-29T10:22:57.039Z,94760.69
2022-11-29T10:25:01.154Z,94762.63
2022-11-29T10:27:05.493Z,94764.97
2022-11-29T10:29:09.438Z,94757.88
2022-11-29T10:31:27.447Z,94754.91
2022-11-29T10:33:31.358Z,94758.56
2022-11-29T10:35:32.874Z,94752.78
2022-11-29T10:37:34.889Z,94750.50
2022-11-29T10:39:43.926Z,94747.25
2022-11-29T10:41:46.289Z,94748.63
2022-11-29T10:43:48.764Z,94742.41
2022-11-29T10:45:56.190Z,94750.47
2022-11-29T10:48:12.236Z,94752.47
2022-11-29T10:50:23.839Z,94746.75
2022-11-29T10:52:25.586Z,94753.84
2022-11-29T10:54:40.315Z,94744.19
2022-11-29T10:56:44.063Z,94742.50
2022-11-29T10:59:09.104Z,94746.22
2022-11-29T11:01:13.569Z,94746.19
2022-11-29T11:03:28.764Z,94744.78
2022-11-29T11:05:30.593Z,94746.63
2022-11-29T11:07:37.006Z,94734.44
2022-11-29T11:09:47.580Z,94744.97
2022-11-29T11:11:54.667Z,94742.38
2022-11-29T11:14:06.126Z,94747.56
2022-11-29T11:16:20.240Z,94748.06
2022-11-29T11:18:24.327Z,94750.34
2022-11-29T11:20:28.434Z,94748.41
2022-11-29T11:22:31.386Z,94753.66
2022-11-29T11:24:36.433Z,94755.88
2022-11-29T11:26:45.098Z,94764.75
2022-11-29T11:28:51.324Z,94768.38
2022-11-29T11:31:13.133Z,94768.84
2022-11-29T11:33:25.714Z,94764.91
2022-11-29T11:35:27.401Z,94770.47
2022-11-29T11:37:29.866Z,94774.25
2022-11-29T11:39:32.280Z,94770.47
2022-11-29T11:41:55.319Z,94770.94
2022-11-29T11:43:59.174Z,94771.22
2022-11-29T11:46:01.031Z,94769.25
2022-11-29T11:48:05.703Z,94764.78
2022-11-29T11:50:13.355Z,94765.56
2022-11-29T11:52:21.208Z,94767.53
2022-11-29T11:54:23.135Z,94763.84
2022-11-29T11:56:26.174Z,94763.69
2022-11-29T11:58:57.546Z,94759.63
2022-11-29T12:01:10.946Z,94763.22
2022-11-29T12:03:50.132Z,94758.19
2022-11-29T12:05:54.651Z,94758.03
2022-11-29T12:08:07.719Z,94758.72
2022-11-29T12:10:21.306Z,94764.03
2022-11-29T12:12:33.008Z,94758.25
2022-11-29T12:14:47.598Z,94748.41
2022-11-29T12:16:50.552Z,94757.97
2022-11-29T12:18:58.756Z,94755.06
2022-11-29T12:21:05.647Z,94751.06
2022-11-29T12:23:12.927Z,94745.03
2022-11-29T12:25:18.995Z,94748.06
2022-11-29T12:27:20.684Z,94750.41
2022-11-29T12:29:22.924Z,94752.44
2022-11-29T12:31:41.752Z,94754.47
2022-11-29T12:33:58.881Z,94759.50
2022-11-29T12:36:00.417Z,94752.75
2022-11-29T12:38:33.707Z,94754.84
2022-11-29T12:40:47.634Z,94756.56
2022-11-29T12:43:04.169Z,94750.94
2022-11-29T12:45:55.612Z,94752.13
2022-11-29T12:48:27.574Z,94753.22
2022-11-29T12:50:40.865Z,94746.81
2022-11-29T12:52:56.183Z,94751.03
2022-11-29T12:55:04.324Z,94746.97
2022-11-29T12:57:18.053Z,94754.59
2022-11-29T12:59:32.662Z,94758.84
2022-11-29T13:01:45.516Z,94759.72
2022-11-29T13:04:24.765Z,94762.22
2022-11-29T13:06:40.838Z,94760.31
2022-11-29T13:08:42.414Z,94766.00
2022-11-29T13:10:49.888Z,94764.28
2022-11-29T13:13:18.809Z,94761.63
2022-11-29T13:15:23.931Z,94759.03
2022-11-29T13:17:43.083Z,94767.16
2022-11-29T13:19:52.257Z,94761.06
2022-11-29T13:21:53.934Z,94772.91
2022-11-29T13:24:12.469Z,94766.09
2022-11-29T13:26:15.107Z,94778.31
2022-11-29T13:28:28.497Z,94771.19
2022-11-29T13:30:30.435Z,94766.06
2022-11-29T13:32:40.367Z,94770.31
2022-11-29T13:34:45.773Z,94773.56
2022-11-29T13:37:19.214Z,94779.19
2022-11-29T13:39:42.552Z,94772.47
2022-11-29T13:41:49.394Z,94775.69
2022-11-29T13:43:55.627Z,94775.78
2022-11-29T13:46:09.438Z,94771.16
2022-11-29T13:48:27.756Z,94769.50
2022-11-29T13:50:37.173Z,94773.78
2022-11-29T13:52:46.624Z,94778.75
2022-11-29T13:54:48.250Z,94772.47
2022-11-29T13:57:01.847Z,94772.03
2022-11-29T13:59:09.233Z,94756.50
2022-11-29T14:01:12.819Z,94766.84
2022-11-29T14:03:23.413Z,94768.72
2022-11-29T14:05:27.450Z,94768.22
2022-11-29T14:07:29.346Z,94777.19
2022-11-29T14:09:33.873Z,94773.34
2022-11-29T14:12:03.460Z,94767.81
2022-11-29T14:14:24.539Z,94769.63
2022-11-29T14:16:32.234Z,94765.19
2022-11-29T14:18:36.921Z,94766.78
2022-11-29T14:20:44.157Z,94774.25
2022-11-29T14:23:04.310Z,94772.91
2022-11-29T14:25:49.933Z,94768.63
2022-11-29T14:27:55.556Z,94771.72
2022-11-29T14:29:58.582Z,94770.03
2022-11-29T14:32:00.158Z,94764.31
2022-11-29T14:34:09.022Z,94765.13
2022-11-29T14:36:38.393Z,94763.72
2022-11-29T14:39:04.325Z,94766.66
2022-11-29T14:41:17.995Z,94766.00
2022-11-29T14:43:29.342Z,94775.41
2022-11-29T14:45:33.422Z,94772.28
2022-11-29T14:47:38.301Z,94766.69
2022-11-29T14:49:42.276Z,94774.94
2022-11-29T14:51:46.635Z,94778.47
2022-11-29T14:54:12.274Z,94775.69
2022-11-29T14:56:29.367Z,94775.97
2022-11-29T14:58:30.953Z,94771.97
2022-11-29T15:00:47.368Z,94774.69
2022-11-29T15:02:52.800Z,94776.84
2022-11-29T15:04:57.957Z,94776.03
2022-11-29T15:07:00.483Z,94774.63
2022-11-29T15:09:05.030Z,94776.91
2022-11-29T15:11:34.460Z,94768.16
2022-11-29T15:13:38.944Z,94773.53
2022-11-29T15:16:02.985Z,94766.34
2022-11-29T15:18:59.444Z,94766.34
2022-11-29T15:21:15.990Z,94758.97
2022-11-29T15:23:19.400Z,94758.41
2022-11-29T15:25:27.633Z,94760.56
2022-11-29T15:27:29.674Z,94761.75
2022-11-29T15:29:32.092Z,94765.91
2022-11-29T15:31:33.803Z,94766.34
2022-11-29T15:33:40.178Z,94767.53
2022-11-29T15:35:48.394Z,94767.66
2022-11-29T15:37:50.318Z,94770.13
2022-11-29T15:40:07.787Z,94783.59
2022-11-29T15:42:14.410Z,94775.91
2022-11-29T15:44:22.257Z,94775.53
2022-11-29T15:46:26.879Z,94780.53
2022-11-29T15:48:30.153Z,94779.28
2022-11-29T15:50:33.155Z,94781.28
2022-11-29T15:52:37.011Z,94780.09
2022-11-29T15:54:39.342Z,94773.19
2022-11-29T15:57:02.110Z,94783.06
2022-11-29T15:59:24.499Z,94775.97
2022-11-29T16:01:26.251Z,94773.88
2022-11-29T16:03:30.940Z,94776.81
2022-11-29T16:05:34.511Z,94776.31
2022-11-29T16:07:37.353Z,94777.31
2022-11-29T16:09:42.180Z,94769.63
2022-11-29T16:11:44.444Z,94773.75
2022-11-29T16:14:12.382Z,94786.69
2022-11-29T16:16:17.791Z,94776.66
2022-11-29T16:18:22.274Z,94776.53
2022-11-29T16:20:25.667Z,94773.56
2022-11-29T16:22:27.295Z,94776.31
2022-11-29T16:24:29.207Z,94774.53
2022-11-29T16:26:34.491Z,94776.97
2022-11-29T16:28:42.155Z,94780.25
2022-11-29T16:30:43.850Z,94775.22
2022-11-29T16:32:47.323Z,94771.41
2022-11-29T16:34:49.237Z,94775.91
2022-11-29T16:37:05.269Z,94774.38
2022-11-29T16:39:27.314Z,94777.16
2022-11-29T16:41:34.754Z,94770.88
2022-11-29T16:43:56.095Z,94781.22
2022-11-29T16:46:22.720Z,94775.59
2022-11-29T16:48:26.915Z,94786.94
2022-11-29T16:50:32.548Z,94772.84
2022-11-29T16:52:34.280Z,94772.94
2022-11-29T16:54:35.960Z,94784.41
2022-11-29T16:56:38.756Z,94779.06
2022-11-29T16:59:20.956Z,94778.50
2022-11-29T17:01:27.294Z,94779.25
2022-11-29T17:03:28.909Z,94777.00
2022-11-29T17:05:30.753Z,94786.81
2022-11-29T17:07:36.093Z,94785.47
2022-11-29T17:09:38.240Z,94786.34
2022-11-29T17:11:39.827Z,94791.44
2022-11-29T17:13:41.487Z,94791.56
2022-11-29T17:16:01.321Z,94791.31
2022-11-29T17:18:02.936Z,94787.63
2022-11-29T17:20:06.983Z,94799.53
2022-11-29T17:22:08.912Z,94799.53
2022-11-29T17:24:13.654Z,94800.25
2022-11-29T17:26:15.792Z,94800.13
2022-11-29T17:28:17.389Z,94809.56
2022-11-29T17:30:19.105Z,94805.63
2022-11-29T17:32:26.244Z,94809.88
2022-11-29T17:34:28.380Z,94813.69
2022-11-29T17:36:30.770Z,94813.00
2022-11-29T17:38:32.497Z,94817.19
2022-11-29T17:40:34.212Z,94816.03
2022-11-29T17:42:35.797Z,94820.13
2022-11-29T17:44:37.546Z,94816.09
2022-11-29T17:46:39.460Z,94821.28
2022-11-29T17:48:42.779Z,94832.06
2022-11-29T17:50:44.443Z,94820.63
2022-11-29T17:52:46.131Z,94828.66
2022-11-29T17:54:47.859Z,94835.31
2022-11-29T17:56:50.071Z,94838.28
2022-11-29T17:58:56.076Z,94838.00
2022-11-29T18:01:13.095Z,94833.19
2022-11-29T18:03:14.713Z,94841.09
2022-11-29T18:05:16.465Z,94835.19
2022-11-29T18:07:18.470Z,94832.25
2022-11-29T18:09:20.265Z,94833.31
2022-11-29T18:11:26.527Z,94826.22
2022-11-29T18:13:28.117Z,94818.44
2022-11-29T18:15:29.776Z,94825.16
2022-11-29T18:17:31.633Z,94828.22
2022-11-29T18:19:34.022Z,94820.41
2022-11-29T18:21:35.880Z,94809.44
2022-11-29T18:23:39.776Z,94813.50
2022-11-29T18:25:41.294Z,94810.34
2022-11-29T18:27:42.946Z,94806.13
2022-11-29T18:29:44.509Z,94806.00
2022-11-29T18:31:46.580Z,94801.88
2022-11-29T18:33:50.962Z,94802.38
2022-11-29T18:35:52.603Z,94802.84
2022-11-29T18:38:14.548Z,94804.84
2022-11-29T18:40:17.190Z,94807.03
2022-11-29T18:42:18.779Z,94807.03
2022-11-29T18:44:29.711Z,94810.31
2022-11-29T18:46:32.922Z,94806.66
2022-11-29T18:48:35.068Z,94801.84
2022-11-29T18:50:36.674Z,94804.06
2022-11-29T18:52:40.828Z,94804.53
2022-11-29T18:54:42.525Z,94804.91
2022-11-29T18:56:44.979Z,94799.84
2022-11-29T18:58:47.989Z,94800.88
2022-11-29T19:00:51.414Z,94803.97
2022-11-29T19:02:53.462Z,94799.03
2022-11-29T19:04:55.185Z,94798.88
2022-11-29T19:06:56.842Z,94806.53
2022-11-29T19:08:58.648Z,94801.59
2022-11-29T19:11:11.227Z,94802.25
2022-11-29T19:13:12.829Z,94802.84
2022-11-29T19:15:14.644Z,94802.97
2022-11-29T19:17:16.371Z,94811.53
2022-11-29T19:19:19.077Z,94802.44
2022-11-29T19:21:22.262Z,94799.59
2022-11-29T19:23:23.946Z,94810.94
2022-11-29T19:25:25.620Z,94812.34
2022-11-29T19:27:27.216Z,94802.66
2022-11-29T19:29:29.157Z,94803.63
2022-11-29T19:31:30.823Z,94806.44
2022-11-29T19:33:37.117Z,94811.47
2022-11-29T19:35:38.827Z,94810.03
2022-11-29T19:37:41.989Z,94812.03
2022-11-29T19:39:44.516Z,94808.22
2022-11-29T19:41:47.922Z,94808.81
2022-11-29T19:43:50.232Z,94804.00
2022-11-29T19:45:51.930Z,94809.19
2022-11-29T19:47:53.558Z,94816.88
2022-11-29T19:50:00.795Z,94808.28
2022-11-29T19:52:04.091Z,94808.53
2022-11-29T19:54:07.188Z,94802.00
2022-11-29T19:56:11.959Z,94797.78
2022-11-29T19:58:13.566Z,94804.38
2022-11-29T20:00:15.832Z,94808.00
2022-11-29T20:02:17.476Z,94809.97
2022-11-29T20:04:19.226Z,94809.22
2022-11-29T20:06:21.117Z,94815.00
2022-11-29T20:08:23.115Z,94813.94
2022-11-29T20:10:25.736Z,94805.31
2022-11-29T20:12:27.368Z,94803.31
2022-11-29T20:14:29.265Z,94803.06
2022-11-29T20:16:31.524Z,94815.00
2022-11-29T20:18:33.767Z,94806.53
2022-11-29T20:20:35.823Z,94806.19
2022-11-29T20:22:37.793Z,94801.25
2022-11-29T20:24:45.089Z,94800.41
2022-11-29T20:26:49.105Z,94797.63
2022-11-29T20:28:51.170Z,94796.22
2022-11-29T20:30:53.144Z,94795.88
2022-11-29T20:32:55.035Z,94788.53
2022-11-29T20:34:57.392Z,94793.25
2022-11-29T20:37:10.423Z,94791.56
2022-11-29T20:39:50.029Z,94797.31
2022-11-29T20:41:54.599Z,94797.59
2022-11-29T20:43:59.003Z,94796.75
2022-11-29T20:46:00.789Z,94789.47
2022-11-29T20:48:11.258Z,94790.66
2022-11-29T20:50:24.716Z,94790.28
2022-11-29T20:52:47.933Z,94787.47
2022-11-29T20:54:49.464Z,94785.34
2022-11-29T20:56:51.338Z,94785.47
2022-11-29T20:58:52.869Z,94779.56
2022-11-29T21:00:55.304Z,94779.78
2022-11-29T21:02:56.909Z,94779.56
2022-11-29T21:04:58.501Z,94767.16
2022-11-29T21:07:00.120Z,94776.91
2022-11-29T21:09:02.186Z,94771.72
2022-11-29T21:11:06.711Z,94761.28
2022-11-29T21:13:10.886Z,94769.63
2022-11-29T21:15:14.181Z,94776.00
2022-11-29T21:17:16.189Z,94785.41
2022-11-29T21:19:24.784Z,94778.91
2022-11-29T21:21:38.279Z,94784.72
2022-11-29T21:24:03.688Z,94791.91
2022-11-29T21:26:08.560Z,94782.94
2022-11-29T21:28:12.768Z,94780.34
2022-11-29T21:30:20.278Z,94789.78
2022-11-29T21:32:24.042Z,94790.03
2022-11-29T21:34:25.637Z,94790.53
2022-11-29T21:36:27.810Z,94795.47
2022-11-29T21:38:29.528Z,94795.34
2022-11-29T21:40:31.132Z,94785.84
2022-11-29T21:42:32.775Z,94787.72
2022-11-29T21:44:34.339Z,94787.75
2022-11-29T21:46:36.284Z,94786.00
2022-11-29T21:48:38.411Z,94789.09
2022-11-29T21:50:40.059Z,94782.72
2022-11-29T21:52:41.796Z,94783.56
2022-11-29T21:54:43.810Z,94788.16
2022-11-29T21:56:45.654Z,94784.28
2022-11-29T21:58:47.274Z,94785.91
2022-11-29T22:00:49.214Z,94797.13
2022-11-29T22:02:51.227Z,94787.22
2022-11-29T22:04:52.896Z,94782.63
2022-11-29T22:06:54.811Z,94784.16
2022-11-29T22:08:57.009Z,94777.66
2022-11-29T22:11:12.115Z,94776.25
2022-11-29T22:13:13.782Z,94774.34
2022-11-29T22:15:19.032Z,94774.25
2022-11-29T22:17:23.272Z,94781.81
2022-11-29T22:19:35.250Z,94776.81
2022-11-29T22:21:36.915Z,94783.66
2022-11-29T22:23:38.513Z,94774.66
2022-11-29T22:25:40.204Z,94776.09
2022-11-29T22:27:41.846Z,94773.97
2022-11-29T22:29:43.458Z,94768.34
2022-11-29T22:31:47.215Z,94761.75
2022-11-29T22:33:48.873Z,94767.63
2022-11-29T22:35:50.469Z,94770.34
2022-11-29T22:37:52.613Z,94764.69
2022-11-29T22:39:54.289Z,94770.00
2022-11-29T22:41:56.096Z,94765.19
2022-11-29T22:43:57.889Z,94770.97
2022-11-29T22:46:08.704Z,94772.72
2022-11-29T22:48:10.281Z,94766.97
2022-11-29T22:50:12.246Z,94768.25
2022-11-29T22:52:13.880Z,94767.66
2022-11-29T22:54:16.527Z,94766.63
2022-11-29T22:56:18.819Z,94763.56
2022-11-29T22:58:20.503Z,94765.53
2022-11-29T23:00:22.185Z,94762.00
2022-11-29T23:02:23.904Z,94763.78
2022-11-29T23:04:25.519Z,94763.78
2022-11-29T23:06:30.167Z,94766.84
2022-11-29T23:08:32.447Z,94759.44
2022-11-29T23:10:34.055Z,94765.53
2022-11-29T23:12:35.883Z,94758.69
2022-11-29T23:14:37.572Z,94760.56
2022-11-29T23:16:39.388Z,94756.34
2022-11-29T23:18:46.160Z,94759.72
2022-11-29T23:20:47.751Z,94766.22
2022-11-29T23:22:49.361Z,94756.28
2022-11-29T23:24:51.020Z,94760.41
2022-11-29T23:26:52.602Z,94762.19
2022-11-29T23:28:54.799Z,94766.56
2022-11-29T23:30:56.506Z,94760.78
2022-11-29T23:32:58.035Z,94759.22
2022-11-29T23:34:59.600Z,94758.38
2022-11-29T23:37:01.445Z,94762.66
2022-11-29T23:39:03.139Z,94762.41
2022-11-29T23:41:06.122Z,94769.47
2022-11-29T23:43:07.738Z,94765.69
2022-11-29T23:45:09.776Z,94762.03
2022-11-29T23:47:11.444Z,94768.75
2022-11-29T23:49:13.200Z,94768.19
2022-11-29T23:51:15.020Z,94766.28
2022-11-29T23:53:19.189Z,94761.47
2022-11-29T23:55:22.122Z,94765.84
2022-11-29T23:57:23.894Z,94760.75
2022-11-29T23:59:25.524Z,94760.25
